sensor_id;sensor_type;location;lat;lon;timestamp;pressure;altitude;pressure_sealevel;temperature;humidity
40918;BME280;26644;50.248;19.032;2023-07-22T00:00:23;97635.19;;;18.28;83.92
40918;BME280;26644;50.248;19.032;2023-07-22T00:03:27;97657.09;;;18.30;84.00
40918;BME280;26644;50.248;19.032;2023-07-22T00:06:35;97656.50;;;18.24;83.98
40918;BME280;26644;50.248;19.032;2023-07-22T00:09:39;97640.88;;;18.19;84.07
40918;BME280;26644;50.248;19.032;2023-07-22T00:12:45;97641.38;;;18.09;83.89
40918;BME280;26644;50.248;19.032;2023-07-22T00:15:49;97645.66;;;18.06;84.06
40918;BME280;26644;50.248;19.032;2023-07-22T00:18:54;97632.69;;;17.98;84.25
40918;BME280;26644;50.248;19.032;2023-07-22T00:22:01;97634.56;;;17.94;84.00
40918;BME280;26644;50.248;19.032;2023-07-22T00:25:08;97641.50;;;17.88;84.14
40918;BME280;26644;50.248;19.032;2023-07-22T00:28:14;97636.50;;;17.81;84.04
40918;BME280;26644;50.248;19.032;2023-07-22T00:31:20;97619.38;;;17.67;84.32
40918;BME280;26644;50.248;19.032;2023-07-22T00:34:24;97631.78;;;17.69;84.49
40918;BME280;26644;50.248;19.032;2023-07-22T00:37:32;97625.28;;;17.65;84.75
40918;BME280;26644;50.248;19.032;2023-07-22T00:40:36;97616.84;;;17.62;84.53
40918;BME280;26644;50.248;19.032;2023-07-22T00:43:42;97616.03;;;17.61;84.89
40918;BME280;26644;50.248;19.032;2023-07-22T00:46:46;97624.38;;;17.61;85.00
40918;BME280;26644;50.248;19.032;2023-07-22T00:49:52;97623.22;;;17.62;84.86
40918;BME280;26644;50.248;19.032;2023-07-22T00:52:59;97615.56;;;17.59;84.72
40918;BME280;26644;50.248;19.032;2023-07-22T00:56:04;97602.38;;;17.56;85.15
40918;BME280;26644;50.248;19.032;2023-07-22T00:59:08;97617.66;;;17.62;84.84
40918;BME280;26644;50.248;19.032;2023-07-22T01:02:14;97609.91;;;17.55;84.79
40918;BME280;26644;50.248;19.032;2023-07-22T01:05:18;97617.19;;;17.60;84.73
40918;BME280;26644;50.248;19.032;2023-07-22T01:08:26;97621.59;;;17.61;84.80
40918;BME280;26644;50.248;19.032;2023-07-22T01:11:30;97620.09;;;17.64;84.25
40918;BME280;26644;50.248;19.032;2023-07-22T01:14:37;97611.06;;;17.67;84.76
40918;BME280;26644;50.248;19.032;2023-07-22T01:17:44;97621.72;;;17.65;85.11
40918;BME280;26644;50.248;19.032;2023-07-22T01:20:49;97628.78;;;17.62;85.11
40918;BME280;26644;50.248;19.032;2023-07-22T01:23:57;97628.19;;;17.69;85.24
40918;BME280;26644;50.248;19.032;2023-07-22T01:27:02;97613.16;;;17.70;84.88
40918;BME280;26644;50.248;19.032;2023-07-22T01:30:11;97612.44;;;17.85;84.44
40918;BME280;26644;50.248;19.032;2023-07-22T01:33:16;97617.78;;;17.90;84.12
40918;BME280;26644;50.248;19.032;2023-07-22T01:36:20;97612.34;;;17.94;83.79
40918;BME280;26644;50.248;19.032;2023-07-22T01:39:27;97609.56;;;17.82;83.90
40918;BME280;26644;50.248;19.032;2023-07-22T01:42:32;97614.19;;;17.90;83.78
40918;BME280;26644;50.248;19.032;2023-07-22T01:45:36;97628.44;;;17.88;83.77
40918;BME280;26644;50.248;19.032;2023-07-22T01:48:41;97632.81;;;17.89;84.28
40918;BME280;26644;50.248;19.032;2023-07-22T01:51:46;97634.44;;;17.90;83.44
40918;BME280;26644;50.248;19.032;2023-07-22T01:54:53;97628.88;;;17.90;83.26
40918;BME280;26644;50.248;19.032;2023-07-22T01:57:58;97627.59;;;17.88;82.58
40918;BME280;26644;50.248;19.032;2023-07-22T02:01:02;97617.19;;;17.85;82.49
40918;BME280;26644;50.248;19.032;2023-07-22T02:04:09;97576.63;;;17.55;82.28
40918;BME280;26644;50.248;19.032;2023-07-22T02:07:14;97619.75;;;17.90;81.66
40918;BME280;26644;50.248;19.032;2023-07-22T02:10:22;97610.72;;;17.81;82.09
40918;BME280;26644;50.248;19.032;2023-07-22T02:13:26;97614.31;;;17.81;82.59
40918;BME280;26644;50.248;19.032;2023-07-22T02:16:31;97608.97;;;17.76;82.72
40918;BME280;26644;50.248;19.032;2023-07-22T02:19:35;97619.72;;;17.77;82.29
40918;BME280;26644;50.248;19.032;2023-07-22T02:22:40;97622.50;;;17.77;82.12
40918;BME280;26644;50.248;19.032;2023-07-22T02:25:48;97632.59;;;17.82;82.17
40918;BME280;26644;50.248;19.032;2023-07-22T02:28:53;97634.78;;;17.76;81.95
40918;BME280;26644;50.248;19.032;2023-07-22T02:31:57;97646.81;;;17.81;81.92
40918;BME280;26644;50.248;19.032;2023-07-22T02:35:03;97647.50;;;17.77;82.31
40918;BME280;26644;50.248;19.032;2023-07-22T02:38:08;97643.78;;;17.73;82.28
40918;BME280;26644;50.248;19.032;2023-07-22T02:41:16;97652.94;;;17.74;82.08
40918;BME280;26644;50.248;19.032;2023-07-22T02:44:20;97637.19;;;17.66;82.20
40918;BME280;26644;50.248;19.032;2023-07-22T02:47:25;97655.25;;;17.72;82.03
40918;BME280;26644;50.248;19.032;2023-07-22T02:50:30;97653.53;;;17.67;82.37
40918;BME280;26644;50.248;19.032;2023-07-22T02:53:36;97655.34;;;17.63;82.42
40918;BME280;26644;50.248;19.032;2023-07-22T02:56:44;97678.25;;;17.60;82.54
40918;BME280;26644;50.248;19.032;2023-07-22T02:59:49;97679.97;;;17.52;82.60
40918;BME280;26644;50.248;19.032;2023-07-22T03:02:56;97677.09;;;17.49;82.59
40918;BME280;26644;50.248;19.032;2023-07-22T03:06:03;97683.28;;;17.46;82.85
40918;BME280;26644;50.248;19.032;2023-07-22T03:09:08;97681.19;;;17.42;82.81
40918;BME280;26644;50.248;19.032;2023-07-22T03:12:17;97691.94;;;17.44;82.97
40918;BME280;26644;50.248;19.032;2023-07-22T03:15:22;97685.47;;;17.40;83.09
40918;BME280;26644;50.248;19.032;2023-07-22T03:18:27;97686.63;;;17.39;82.93
40918;BME280;26644;50.248;19.032;2023-07-22T03:21:32;97693.09;;;17.43;83.08
40918;BME280;26644;50.248;19.032;2023-07-22T03:24:36;97694.28;;;17.42;83.31
40918;BME280;26644;50.248;19.032;2023-07-22T03:27:44;97697.84;;;17.42;83.35
40918;BME280;26644;50.248;19.032;2023-07-22T03:30:49;97702.34;;;17.47;83.20
40918;BME280;26644;50.248;19.032;2023-07-22T03:33:54;97691.16;;;17.43;83.13
40918;BME280;26644;50.248;19.032;2023-07-22T03:36:59;97708.41;;;17.49;82.92
40918;BME280;26644;50.248;19.032;2023-07-22T03:40:05;97717.22;;;17.51;83.39
40918;BME280;26644;50.248;19.032;2023-07-22T03:43:24;97715.69;;;17.54;83.07
40918;BME280;26644;50.248;19.032;2023-07-22T03:46:28;97730.19;;;17.59;83.20
40918;BME280;26644;50.248;19.032;2023-07-22T03:49:33;97728.34;;;17.64;82.86
40918;BME280;26644;50.248;19.032;2023-07-22T03:52:37;97740.59;;;17.63;82.91
40918;BME280;26644;50.248;19.032;2023-07-22T03:55:42;97741.28;;;17.59;82.64
40918;BME280;26644;50.248;19.032;2023-07-22T03:58:49;97745.19;;;17.58;82.72
40918;BME280;26644;50.248;19.032;2023-07-22T04:01:54;97750.69;;;17.67;82.36
40918;BME280;26644;50.248;19.032;2023-07-22T04:04:58;97760.28;;;17.70;82.07
40918;BME280;26644;50.248;19.032;2023-07-22T04:08:04;97763.38;;;17.68;81.93
40918;BME280;26644;50.248;19.032;2023-07-22T04:11:08;97750.69;;;17.67;81.75
40918;BME280;26644;50.248;19.032;2023-07-22T04:14:16;97763.84;;;17.70;82.04
40918;BME280;26644;50.248;19.032;2023-07-22T04:17:20;97753.56;;;17.71;81.42
40918;BME280;26644;50.248;19.032;2023-07-22T04:20:25;97766.75;;;17.74;81.12
40918;BME280;26644;50.248;19.032;2023-07-22T04:23:29;97761.31;;;17.77;81.41
40918;BME280;26644;50.248;19.032;2023-07-22T04:26:35;97773.69;;;17.80;81.33
40918;BME280;26644;50.248;19.032;2023-07-22T04:29:42;97773.97;;;17.87;81.33
40918;BME280;26644;50.248;19.032;2023-07-22T04:32:47;97786.00;;;17.91;80.89
40918;BME280;26644;50.248;19.032;2023-07-22T04:35:55;97789.13;;;17.90;80.73
40918;BME280;26644;50.248;19.032;2023-07-22T04:39:00;97798.25;;;17.90;80.68
40918;BME280;26644;50.248;19.032;2023-07-22T04:42:06;97802.88;;;17.86;80.52
40918;BME280;26644;50.248;19.032;2023-07-22T04:45:14;97793.97;;;17.81;80.66
40918;BME280;26644;50.248;19.032;2023-07-22T04:48:20;97811.41;;;17.81;80.78
40918;BME280;26644;50.248;19.032;2023-07-22T04:51:26;97813.84;;;17.83;80.99
40918;BME280;26644;50.248;19.032;2023-07-22T04:54:30;97804.59;;;17.79;80.18
40918;BME280;26644;50.248;19.032;2023-07-22T04:57:35;97808.66;;;17.81;80.65
40918;BME280;26644;50.248;19.032;2023-07-22T05:00:44;97801.25;;;17.85;80.47
40918;BME280;26644;50.248;19.032;2023-07-22T05:03:50;97812.94;;;17.91;79.95
40918;BME280;26644;50.248;19.032;2023-07-22T05:06:56;97812.72;;;17.96;79.56
40918;BME280;26644;50.248;19.032;2023-07-22T05:10:01;97820.03;;;18.01;78.76
40918;BME280;26644;50.248;19.032;2023-07-22T05:13:05;97822.47;;;18.02;78.04
40918;BME280;26644;50.248;19.032;2023-07-22T05:16:13;97834.06;;;18.17;77.45
40918;BME280;26644;50.248;19.032;2023-07-22T05:19:17;97843.13;;;18.26;77.27
40918;BME280;26644;50.248;19.032;2023-07-22T05:22:22;97837.06;;;18.24;75.89
40918;BME280;26644;50.248;19.032;2023-07-22T05:25:27;97847.75;;;18.22;75.67
40918;BME280;26644;50.248;19.032;2023-07-22T05:28:32;97827.59;;;18.13;75.63
40918;BME280;26644;50.248;19.032;2023-07-22T05:31:39;97861.50;;;18.31;74.92
40918;BME280;26644;50.248;19.032;2023-07-22T05:34:44;97847.88;;;18.38;74.48
40918;BME280;26644;50.248;19.032;2023-07-22T05:37:49;97852.50;;;18.34;73.43
40918;BME280;26644;50.248;19.032;2023-07-22T05:40:54;97858.31;;;18.41;73.09
40918;BME280;26644;50.248;19.032;2023-07-22T05:43:58;97860.41;;;18.44;72.97
40918;BME280;26644;50.248;19.032;2023-07-22T05:47:06;97868.41;;;18.70;73.20
40918;BME280;26644;50.248;19.032;2023-07-22T05:50:10;97866.97;;;19.26;70.14
40918;BME280;26644;50.248;19.032;2023-07-22T05:53:15;97881.63;;;19.92;68.91
40918;BME280;26644;50.248;19.032;2023-07-22T05:56:19;97887.34;;;20.72;65.84
40918;BME280;26644;50.248;19.032;2023-07-22T05:59:24;97883.09;;;21.46;63.42
40918;BME280;26644;50.248;19.032;2023-07-22T06:02:31;97882.75;;;22.06;59.75
40918;BME280;26644;50.248;19.032;2023-07-22T06:05:36;97884.75;;;22.71;58.47
40918;BME280;26644;50.248;19.032;2023-07-22T06:08:40;97895.25;;;23.55;56.21
40918;BME280;26644;50.248;19.032;2023-07-22T06:11:45;97902.84;;;24.19;53.54
40918;BME280;26644;50.248;19.032;2023-07-22T06:14:49;97901.97;;;24.94;51.79
40918;BME280;26644;50.248;19.032;2023-07-22T06:17:57;97902.22;;;25.30;49.22
40918;BME280;26644;50.248;19.032;2023-07-22T06:21:01;97908.97;;;25.81;48.02
40918;BME280;26644;50.248;19.032;2023-07-22T06:24:06;97887.38;;;25.99;46.27
40918;BME280;26644;50.248;19.032;2023-07-22T06:27:11;97905.19;;;26.47;45.20
40918;BME280;26644;50.248;19.032;2023-07-22T06:30:16;97908.00;;;26.47;44.49
40918;BME280;26644;50.248;19.032;2023-07-22T06:33:22;97891.16;;;26.76;43.96
40918;BME280;26644;50.248;19.032;2023-07-22T06:36:27;97917.34;;;27.30;43.60
40918;BME280;26644;50.248;19.032;2023-07-22T06:39:32;97921.72;;;27.46;42.32
40918;BME280;26644;50.248;19.032;2023-07-22T06:42:37;97915.72;;;27.29;42.65
40918;BME280;26644;50.248;19.032;2023-07-22T06:45:41;97918.13;;;26.98;42.93
40918;BME280;26644;50.248;19.032;2023-07-22T06:48:49;97912.91;;;26.93;43.38
40918;BME280;26644;50.248;19.032;2023-07-22T06:51:54;97910.09;;;26.93;43.46
40918;BME280;26644;50.248;19.032;2023-07-22T06:54:59;97920.47;;;26.53;42.50
40918;BME280;26644;50.248;19.032;2023-07-22T06:58:03;97915.91;;;25.98;43.75
40918;BME280;26644;50.248;19.032;2023-07-22T07:01:08;97937.41;;;25.65;44.99
40918;BME280;26644;50.248;19.032;2023-07-22T07:04:15;97923.19;;;25.39;45.35
40918;BME280;26644;50.248;19.032;2023-07-22T07:07:20;97943.13;;;25.86;45.09
40918;BME280;26644;50.248;19.032;2023-07-22T07:10:24;97939.75;;;26.40;44.03
40918;BME280;26644;50.248;19.032;2023-07-22T07:13:29;97943.47;;;27.09;41.76
40918;BME280;26644;50.248;19.032;2023-07-22T07:16:33;97953.94;;;27.37;41.13
40918;BME280;26644;50.248;19.032;2023-07-22T07:19:41;97941.69;;;28.13;39.90
40918;BME280;26644;50.248;19.032;2023-07-22T07:22:45;97948.28;;;28.66;39.45
40918;BME280;26644;50.248;19.032;2023-07-22T07:25:50;97955.88;;;28.76;37.80
40918;BME280;26644;50.248;19.032;2023-07-22T07:28:54;97949.81;;;28.81;37.70
40918;BME280;26644;50.248;19.032;2023-07-22T07:31:59;97951.66;;;28.35;38.11
40918;BME280;26644;50.248;19.032;2023-07-22T07:35:07;97966.94;;;28.49;37.83
40918;BME280;26644;50.248;19.032;2023-07-22T07:38:13;97953.66;;;28.38;37.36
40918;BME280;26644;50.248;19.032;2023-07-22T07:41:18;97956.94;;;28.26;37.04
40918;BME280;26644;50.248;19.032;2023-07-22T07:44:23;97960.25;;;28.10;37.55
40918;BME280;26644;50.248;19.032;2023-07-22T07:47:27;97961.94;;;27.86;37.77
40918;BME280;26644;50.248;19.032;2023-07-22T07:50:35;97957.88;;;27.94;37.22
40918;BME280;26644;50.248;19.032;2023-07-22T07:53:39;97960.91;;;28.36;36.56
40918;BME280;26644;50.248;19.032;2023-07-22T07:56:45;97969.09;;;28.90;35.13
40918;BME280;26644;50.248;19.032;2023-07-22T07:59:49;97975.44;;;29.05;35.39
40918;BME280;26644;50.248;19.032;2023-07-22T08:02:54;97984.75;;;29.54;35.02
40918;BME280;26644;50.248;19.032;2023-07-22T08:06:02;97984.25;;;29.63;35.45
40918;BME280;26644;50.248;19.032;2023-07-22T08:09:08;97978.56;;;29.70;34.00
40918;BME280;26644;50.248;19.032;2023-07-22T08:12:19;97986.94;;;29.36;34.05
40918;BME280;26644;50.248;19.032;2023-07-22T08:15:25;98002.56;;;28.95;34.79
40918;BME280;26644;50.248;19.032;2023-07-22T08:18:29;98000.81;;;28.49;35.78
40918;BME280;26644;50.248;19.032;2023-07-22T08:21:37;98007.03;;;27.82;36.62
40918;BME280;26644;50.248;19.032;2023-07-22T08:24:41;97989.34;;;27.06;38.31
40918;BME280;26644;50.248;19.032;2023-07-22T08:27:46;98019.50;;;26.80;38.48
40918;BME280;26644;50.248;19.032;2023-07-22T08:30:54;98016.22;;;26.64;38.61
40918;BME280;26644;50.248;19.032;2023-07-22T08:34:02;98027.00;;;26.40;39.57
40918;BME280;26644;50.248;19.032;2023-07-22T08:37:09;98028.91;;;26.21;39.84
40918;BME280;26644;50.248;19.032;2023-07-22T08:40:14;98027.47;;;25.86;40.24
40918;BME280;26644;50.248;19.032;2023-07-22T08:43:21;98030.72;;;25.88;40.42
40918;BME280;26644;50.248;19.032;2023-07-22T08:46:28;98031.47;;;25.85;40.58
40918;BME280;26644;50.248;19.032;2023-07-22T08:49:34;98025.69;;;26.23;40.17
40918;BME280;26644;50.248;19.032;2023-07-22T08:52:43;98020.19;;;26.52;39.38
40918;BME280;26644;50.248;19.032;2023-07-22T08:55:48;98030.44;;;27.32;38.47
40918;BME280;26644;50.248;19.032;2023-07-22T08:58:55;98022.75;;;27.98;38.25
40918;BME280;26644;50.248;19.032;2023-07-22T09:02:01;98021.38;;;28.46;36.51
40918;BME280;26644;50.248;19.032;2023-07-22T09:05:07;98013.72;;;28.53;35.49
40918;BME280;26644;50.248;19.032;2023-07-22T09:08:15;98033.38;;;28.71;35.77
40918;BME280;26644;50.248;19.032;2023-07-22T09:11:21;98033.19;;;29.04;35.75
40918;BME280;26644;50.248;19.032;2023-07-22T09:14:25;98035.78;;;29.36;34.22
40918;BME280;26644;50.248;19.032;2023-07-22T09:17:32;98036.97;;;29.43;34.79
40918;BME280;26644;50.248;19.032;2023-07-22T09:20:37;98043.25;;;29.65;34.22
40918;BME280;26644;50.248;19.032;2023-07-22T09:23:44;98048.28;;;29.88;33.34
40918;BME280;26644;50.248;19.032;2023-07-22T09:26:49;98047.00;;;29.93;33.11
40918;BME280;26644;50.248;19.032;2023-07-22T09:29:54;98042.56;;;29.46;33.80
40918;BME280;26644;50.248;19.032;2023-07-22T09:33:00;98039.22;;;29.10;34.10
40918;BME280;26644;50.248;19.032;2023-07-22T09:36:06;98044.88;;;29.02;34.21
40918;BME280;26644;50.248;19.032;2023-07-22T09:39:16;98042.09;;;28.99;33.80
40918;BME280;26644;50.248;19.032;2023-07-22T09:42:24;98033.16;;;29.11;33.58
40918;BME280;26644;50.248;19.032;2023-07-22T09:45:30;98043.94;;;29.27;32.57
40918;BME280;26644;50.248;19.032;2023-07-22T09:48:42;98043.31;;;29.54;33.41
40918;BME280;26644;50.248;19.032;2023-07-22T09:51:50;98037.00;;;29.35;33.22
40918;BME280;26644;50.248;19.032;2023-07-22T09:54:59;98036.66;;;28.63;33.70
40918;BME280;26644;50.248;19.032;2023-07-22T09:58:04;98039.53;;;28.45;34.75
40918;BME280;26644;50.248;19.032;2023-07-22T10:01:12;98048.25;;;28.79;34.70
40918;BME280;26644;50.248;19.032;2023-07-22T10:04:26;98043.91;;;29.34;33.77
40918;BME280;26644;50.248;19.032;2023-07-22T10:07:37;98048.22;;;29.46;33.22
40918;BME280;26644;50.248;19.032;2023-07-22T10:10:45;98052.38;;;29.34;33.26
40918;BME280;26644;50.248;19.032;2023-07-22T10:13:50;98055.19;;;28.64;33.75
40918;BME280;26644;50.248;19.032;2023-07-22T10:16:57;98059.38;;;28.16;34.34
40918;BME280;26644;50.248;19.032;2023-07-22T10:20:03;98057.81;;;27.71;35.46
40918;BME280;26644;50.248;19.032;2023-07-22T10:23:09;98060.22;;;27.66;36.51
40918;BME280;26644;50.248;19.032;2023-07-22T10:26:20;98063.06;;;27.77;36.86
40918;BME280;26644;50.248;19.032;2023-07-22T10:29:25;98063.44;;;28.11;35.70
40918;BME280;26644;50.248;19.032;2023-07-22T10:32:33;98063.63;;;28.71;35.08
40918;BME280;26644;50.248;19.032;2023-07-22T10:35:43;98057.66;;;29.29;33.92
40918;BME280;26644;50.248;19.032;2023-07-22T10:39:05;98050.22;;;29.53;33.03
40918;BME280;26644;50.248;19.032;2023-07-22T10:42:24;98033.63;;;29.55;31.85
40918;BME280;26644;50.248;19.032;2023-07-22T10:45:31;98046.69;;;29.87;31.72
40918;BME280;26644;50.248;19.032;2023-07-22T10:48:39;98045.53;;;30.19;31.62
40918;BME280;26644;50.248;19.032;2023-07-22T10:51:47;98054.88;;;30.54;31.40
40918;BME280;26644;50.248;19.032;2023-07-22T10:54:55;98053.22;;;30.57;30.65
40918;BME280;26644;50.248;19.032;2023-07-22T10:58:05;98042.81;;;30.08;30.81
40918;BME280;26644;50.248;19.032;2023-07-22T11:01:23;98058.44;;;29.33;31.62
40918;BME280;26644;50.248;19.032;2023-07-22T11:04:29;98047.50;;;28.71;32.13
40918;BME280;26644;50.248;19.032;2023-07-22T11:07:43;98059.38;;;28.16;32.86
40918;BME280;26644;50.248;19.032;2023-07-22T11:10:53;98060.63;;;27.64;33.66
40918;BME280;26644;50.248;19.032;2023-07-22T11:14:13;98065.44;;;27.17;33.34
40918;BME280;26644;50.248;19.032;2023-07-22T11:17:28;98049.25;;;26.70;34.23
40918;BME280;26644;50.248;19.032;2023-07-22T11:20:37;98049.09;;;26.45;35.38
40918;BME280;26644;50.248;19.032;2023-07-22T11:23:42;98050.56;;;26.14;35.76
40918;BME280;26644;50.248;19.032;2023-07-22T11:26:47;98060.84;;;25.92;35.89
40918;BME280;26644;50.248;19.032;2023-07-22T11:29:57;98055.09;;;25.73;36.66
40918;BME280;26644;50.248;19.032;2023-07-22T11:33:02;98048.09;;;25.49;36.73
40918;BME280;26644;50.248;19.032;2023-07-22T11:36:07;98050.78;;;25.35;37.26
40918;BME280;26644;50.248;19.032;2023-07-22T11:39:13;98050.31;;;25.29;37.04
40918;BME280;26644;50.248;19.032;2023-07-22T11:42:19;98046.22;;;25.23;36.66
40918;BME280;26644;50.248;19.032;2023-07-22T11:45:26;98052.19;;;25.14;36.96
40918;BME280;26644;50.248;19.032;2023-07-22T11:48:31;98047.31;;;25.07;37.19
40918;BME280;26644;50.248;19.032;2023-07-22T11:51:35;98050.03;;;24.97;37.38
40918;BME280;26644;50.248;19.032;2023-07-22T11:54:42;98039.38;;;24.79;37.83
40918;BME280;26644;50.248;19.032;2023-07-22T11:57:52;98052.19;;;24.77;37.87
40918;BME280;26644;50.248;19.032;2023-07-22T12:01:10;98043.66;;;24.66;38.31
40918;BME280;26644;50.248;19.032;2023-07-22T12:04:16;98045.91;;;24.53;38.78
40918;BME280;26644;50.248;19.032;2023-07-22T12:07:22;98037.94;;;24.58;39.16
40918;BME280;26644;50.248;19.032;2023-07-22T12:10:28;98038.53;;;24.71;37.99
40918;BME280;26644;50.248;19.032;2023-07-22T12:13:36;98039.81;;;24.81;38.02
40918;BME280;26644;50.248;19.032;2023-07-22T12:16:43;98032.38;;;25.00;37.98
40918;BME280;26644;50.248;19.032;2023-07-22T12:19:52;97954.16;;;24.57;37.96
40918;BME280;26644;50.248;19.032;2023-07-22T12:22:57;98019.97;;;25.04;37.75
40918;BME280;26644;50.248;19.032;2023-07-22T12:26:02;98018.06;;;25.12;38.00
40918;BME280;26644;50.248;19.032;2023-07-22T12:29:07;98016.38;;;25.04;37.58
40918;BME280;26644;50.248;19.032;2023-07-22T12:32:15;98028.41;;;25.04;37.79
40918;BME280;26644;50.248;19.032;2023-07-22T12:35:19;98030.78;;;24.99;38.13
40918;BME280;26644;50.248;19.032;2023-07-22T12:38:24;98029.88;;;24.91;37.75
40918;BME280;26644;50.248;19.032;2023-07-22T12:41:28;97999.78;;;24.54;38.65
40918;BME280;26644;50.248;19.032;2023-07-22T12:44:34;98023.66;;;24.71;38.67
40918;BME280;26644;50.248;19.032;2023-07-22T12:47:41;97991.34;;;24.50;38.70
40918;BME280;26644;50.248;19.032;2023-07-22T12:50:46;97989.69;;;24.46;39.03
40918;BME280;26644;50.248;19.032;2023-07-22T12:53:50;98027.19;;;24.64;38.83
40918;BME280;26644;50.248;19.032;2023-07-22T12:56:55;98015.97;;;24.64;39.33
40918;BME280;26644;50.248;19.032;2023-07-22T13:00:00;98016.44;;;24.70;39.44
40918;BME280;26644;50.248;19.032;2023-07-22T13:03:10;98001.03;;;24.56;39.57
40918;BME280;26644;50.248;19.032;2023-07-22T13:06:14;98003.38;;;24.51;39.43
40918;BME280;26644;50.248;19.032;2023-07-22T13:09:19;97998.38;;;24.33;39.53
40918;BME280;26644;50.248;19.032;2023-07-22T13:12:24;97999.09;;;24.27;39.76
40918;BME280;26644;50.248;19.032;2023-07-22T13:15:29;98011.44;;;24.22;39.88
40918;BME280;26644;50.248;19.032;2023-07-22T13:18:35;98017.69;;;24.08;39.71
40918;BME280;26644;50.248;19.032;2023-07-22T13:21:40;98010.00;;;24.01;40.39
40918;BME280;26644;50.248;19.032;2023-07-22T13:24:45;98009.16;;;24.01;40.69
40918;BME280;26644;50.248;19.032;2023-07-22T13:27:50;98002.81;;;24.04;40.55
40918;BME280;26644;50.248;19.032;2023-07-22T13:30:54;97995.66;;;24.06;40.62
40918;BME280;26644;50.248;19.032;2023-07-22T13:34:01;98012.50;;;24.10;39.88
40918;BME280;26644;50.248;19.032;2023-07-22T13:37:05;97978.72;;;23.99;39.67
40918;BME280;26644;50.248;19.032;2023-07-22T13:40:11;97991.28;;;24.13;40.05
40918;BME280;26644;50.248;19.032;2023-07-22T13:43:15;97997.47;;;24.26;39.62
40918;BME280;26644;50.248;19.032;2023-07-22T13:46:20;97993.16;;;24.35;39.48
40918;BME280;26644;50.248;19.032;2023-07-22T13:49:27;97984.34;;;24.33;38.81
40918;BME280;26644;50.248;19.032;2023-07-22T13:52:32;97987.66;;;24.43;38.46
40918;BME280;26644;50.248;19.032;2023-07-22T13:55:36;97976.81;;;24.41;38.25
40918;BME280;26644;50.248;19.032;2023-07-22T13:58:41;97991.38;;;24.54;38.34
40918;BME280;26644;50.248;19.032;2023-07-22T14:01:45;97989.41;;;24.54;38.26
40918;BME280;26644;50.248;19.032;2023-07-22T14:04:53;97978.47;;;24.46;37.34
40918;BME280;26644;50.248;19.032;2023-07-22T14:07:57;97984.38;;;24.37;38.33
40918;BME280;26644;50.248;19.032;2023-07-22T14:11:02;97983.56;;;24.36;38.43
40918;BME280;26644;50.248;19.032;2023-07-22T14:14:06;97982.78;;;24.36;38.28
40918;BME280;26644;50.248;19.032;2023-07-22T14:17:11;97978.69;;;24.30;37.85
40918;BME280;26644;50.248;19.032;2023-07-22T14:20:18;97979.97;;;24.36;38.11
40918;BME280;26644;50.248;19.032;2023-07-22T14:23:24;97970.72;;;24.35;38.18
40918;BME280;26644;50.248;19.032;2023-07-22T14:26:28;97963.81;;;24.26;38.36
40918;BME280;26644;50.248;19.032;2023-07-22T14:29:33;97961.56;;;24.38;37.44
40918;BME280;26644;50.248;19.032;2023-07-22T14:32:37;97968.03;;;24.46;37.47
40918;BME280;26644;50.248;19.032;2023-07-22T14:35:45;97960.75;;;24.38;36.73
40918;BME280;26644;50.248;19.032;2023-07-22T14:38:49;97967.53;;;24.37;36.46
40918;BME280;26644;50.248;19.032;2023-07-22T14:41:55;97964.19;;;24.24;36.58
40918;BME280;26644;50.248;19.032;2023-07-22T14:44:59;97960.56;;;24.20;36.20
40918;BME280;26644;50.248;19.032;2023-07-22T14:48:05;97957.31;;;24.18;36.18
40918;BME280;26644;50.248;19.032;2023-07-22T14:51:13;97959.34;;;24.21;36.42
40918;BME280;26644;50.248;19.032;2023-07-22T14:54:18;97963.69;;;24.15;36.36
40918;BME280;26644;50.248;19.032;2023-07-22T14:57:22;97966.44;;;24.11;36.60
40918;BME280;26644;50.248;19.032;2023-07-22T15:00:28;97963.13;;;24.02;35.65
40918;BME280;26644;50.248;19.032;2023-07-22T15:03:33;97971.66;;;24.13;35.97
40918;BME280;26644;50.248;19.032;2023-07-22T15:06:40;97967.75;;;24.21;35.30
40918;BME280;26644;50.248;19.032;2023-07-22T15:09:44;97959.91;;;24.34;35.43
40918;BME280;26644;50.248;19.032;2023-07-22T15:12:49;97972.13;;;24.52;34.80
40918;BME280;26644;50.248;19.032;2023-07-22T15:15:54;97925.06;;;24.35;35.43
40918;BME280;26644;50.248;19.032;2023-07-22T15:18:59;97945.06;;;24.33;34.33
40918;BME280;26644;50.248;19.032;2023-07-22T15:22:06;97960.13;;;24.55;34.71
40918;BME280;26644;50.248;19.032;2023-07-22T15:25:11;97964.53;;;24.56;34.60
40918;BME280;26644;50.248;19.032;2023-07-22T15:28:15;97962.53;;;24.53;33.38
40918;BME280;26644;50.248;19.032;2023-07-22T15:31:20;97956.81;;;24.43;33.34
40918;BME280;26644;50.248;19.032;2023-07-22T15:34:27;97963.66;;;24.49;33.79
40918;BME280;26644;50.248;19.032;2023-07-22T15:37:34;97932.69;;;24.38;33.82
40918;BME280;26644;50.248;19.032;2023-07-22T15:40:39;97949.19;;;24.43;33.01
40918;BME280;26644;50.248;19.032;2023-07-22T15:43:44;97959.09;;;24.33;33.50
40918;BME280;26644;50.248;19.032;2023-07-22T15:46:48;97949.84;;;24.33;33.39
40918;BME280;26644;50.248;19.032;2023-07-22T15:49:53;97948.28;;;24.32;33.82
40918;BME280;26644;50.248;19.032;2023-07-22T15:53:00;97959.91;;;24.34;33.94
40918;BME280;26644;50.248;19.032;2023-07-22T15:56:05;97959.50;;;24.35;34.23
40918;BME280;26644;50.248;19.032;2023-07-22T15:59:09;97957.41;;;24.25;34.07
40918;BME280;26644;50.248;19.032;2023-07-22T16:02:14;97966.66;;;24.29;34.28
40918;BME280;26644;50.248;19.032;2023-07-22T16:05:18;97952.56;;;24.22;34.86
40918;BME280;26644;50.248;19.032;2023-07-22T16:08:27;97963.03;;;24.25;35.53
40918;BME280;26644;50.248;19.032;2023-07-22T16:11:33;97954.50;;;24.18;34.84